Ilopango International Airport
MSSS : now visible

Airfield :











YOU CAN JOIN US ON...

 
LOGIN :

Register | Disclaimer

   EN    FR    IT 

 









Legend :    VFR   Marginal VFR   IFR   Intensive IFR   Very Intensive IFR
Visi :
Ceiling :
>= 8 km
>= 3000ft
5 to 8 km
1000 to 3000 ft
1500m to 5 km
500 to 1000 ft
800 to 1500m
200 to 500 ft
< 800m
< 200 ft
Symbols :   Thunderstorms  Fog  Heavy snow  Heavy precipitations  Wind > 20 kt






- Airport Elevation : 2021 ft


MSSS - Ilopango International

CURRENT METAR :
  • 170450Z 14002KT CAVOK 21/20 Q1017 A3005

EXPIRED METARs :
  • 170350Z 21002KT CAVOK 22/20 Q1017 A3004
  • 170250Z 15003KT 9999 FEW020 22/21 Q1017 A3003

TAF TAF MSSS
Valid from the 17 at 00:00 until the 18 at 00:00 UTC


162125Z 1700/1724 17005KT 9999 FEW020 FEW037CB TX29/1720Z TN21/1712Z
FM170400 34004KT 9999 FEW017 SCT043
FM171200 36007KT 9999 FEW047
FM171800 16010KT 9999 FEW023 FEW040CB



MET'MAP, your aeronautical weather chart ! - Copyright ORBIFLY December 2007 - Disclaimer

ORBIFLY MET'MAP TEAM :

Programming & Development : Alexandra Zaïnal
Concept & Development : Baudouin d'Aumeries
Co-Development & Prog : Marc-Olivier Méhu
Technical & hardware support : Manuel Goepfert

Contact : metmap@orbifly.com




SOURCES & CREDITS :

   NOAA       Earth
Advisory